Time;durP1;ratioP1;P1;durP2;ratioP2;P2;SDS_P1;SDS_P2;PMS_P1;PMS_P2;Temp;Humidity;BMP_temperature;BMP_pressure;BME280_temperature;BME280_humidity;BME280_pressure;Samples;Min_cycle;Max_cycle;Signal;HPM_P1;HPM_P2
2023/06/09 00:02:37;;;;;;;2.90;2.60;;;;;;;;;;12876765;23;20043;-85
2023/06/09 00:07:40;;;;;;;2.00;1.63;;;;;;;;;;12876136;23;20463;-84
2023/06/09 00:12:44;;;;;;;3.75;2.30;;;;;;;;;;12904518;23;20070;-84
2023/06/09 00:17:49;;;;;;;3.00;2.55;;;;;;;;;;12902813;22;20016;-84
2023/06/09 00:22:55;;;;;;;3.38;2.58;;;;;;;;;;12880405;23;20036;-84
2023/06/09 00:27:58;;;;;;;2.10;1.90;;;;;;;;;;12912736;22;20028;-84
2023/06/09 00:33:03;;;;;;;2.50;2.30;;;;;;;;;;12884878;23;20035;-85
2023/06/09 00:38:06;;;;;;;4.82;2.40;;;;;;;;;;12886822;23;20028;-83
2023/06/09 00:43:09;;;;;;;3.20;2.25;;;;;;;;;;12887244;23;20028;-85
2023/06/09 00:48:14;;;;;;;3.78;2.70;;;;;;;;;;12917950;22;20028;-84
2023/06/09 00:53:18;;;;;;;3.92;2.20;;;;;;;;;;12910772;23;20024;-83
2023/06/09 00:58:23;;;;;;;3.20;2.30;;;;;;;;;;12907446;22;20486;-84
2023/06/09 01:03:28;;;;;;;2.45;2.25;;;;;;;;;;12883020;23;20027;-84
2023/06/09 01:08:38;;;;;;;2.63;2.10;;;;;;;;;;12908613;23;20039;-84
2023/06/09 01:13:48;;;;;;;2.15;1.95;;;;;;;;;;12882763;23;20035;-84
2023/06/09 01:18:53;;;;;;;2.88;2.55;;;;;;;;;;12907074;23;20035;-84
2023/06/09 01:24:09;;;;;;;2.88;2.28;;;;;;;;;;12881641;22;20028;-85
2023/06/09 01:29:16;;;;;;;2.78;2.33;;;;;;;;;;12914136;23;20028;-84
2023/06/09 01:34:21;;;;;;;3.00;2.50;;;;;;;;;;12880151;22;20210;-84
2023/06/09 01:39:24;;;;;;;2.95;2.33;;;;;;;;;;12907381;23;20048;-85
2023/06/09 01:44:29;;;;;;;2.60;2.20;;;;;;;;;;12881955;22;20020;-84
2023/06/09 01:49:42;;;;;;;4.18;2.63;;;;;;;;;;12883848;23;20028;-84
2023/06/09 01:54:53;;;;;;;2.88;2.30;;;;;;;;;;12910787;22;20028;-84
2023/06/09 02:00:04;;;;;;;2.17;1.90;;;;;;;;;;12882318;23;20016;-83
2023/06/09 02:05:17;;;;;;;2.75;2.25;;;;;;;;;;12905030;22;20027;-84
2023/06/09 02:10:22;;;;;;;2.65;2.20;;;;;;;;;;12878312;23;20016;-84
2023/06/09 02:15:26;;;;;;;3.08;2.65;;;;;;;;;;12879514;22;20063;-83
2023/06/09 02:20:30;;;;;;;3.05;2.47;;;;;;;;;;12905365;23;20020;-84
2023/06/09 02:25:33;;;;;;;2.70;2.30;;;;;;;;;;12880245;22;20489;-84
2023/06/09 02:30:38;;;;;;;3.20;2.50;;;;;;;;;;12867352;22;20025;-86
2023/06/09 02:35:42;;;;;;;3.75;2.97;;;;;;;;;;12838222;23;20020;-88
2023/06/09 02:40:47;;;;;;;3.80;2.38;;;;;;;;;;12876163;23;20028;-87
2023/06/09 02:45:52;;;;;;;4.80;2.40;;;;;;;;;;12876815;22;20091;-88
2023/06/09 02:50:56;;;;;;;2.57;2.30;;;;;;;;;;12877768;23;20024;-87
2023/06/09 02:56:00;;;;;;;2.85;2.22;;;;;;;;;;12877581;22;20028;-87
2023/06/09 03:01:11;;;;;;;3.13;2.13;;;;;;;;;;12874403;23;20016;-87
2023/06/09 03:06:16;;;;;;;2.75;2.13;;;;;;;;;;12874854;22;20016;-88
2023/06/09 03:11:20;;;;;;;3.03;2.43;;;;;;;;;;12872960;23;20080;-88
2023/06/09 03:16:27;;;;;;;3.58;2.63;;;;;;;;;;12873659;22;20020;-88
2023/06/09 03:21:35;;;;;;;3.15;2.33;;;;;;;;;;12900087;23;20501;-88
2023/06/09 03:26:39;;;;;;;2.65;2.25;;;;;;;;;;12875320;22;20024;-88
2023/06/09 03:31:45;;;;;;;5.72;2.50;;;;;;;;;;12875029;23;20491;-88
2023/06/09 03:36:49;;;;;;;2.85;2.25;;;;;;;;;;12873245;23;20051;-88
2023/06/09 03:41:55;;;;;;;3.42;2.75;;;;;;;;;;12874759;23;20027;-88
2023/06/09 03:47:01;;;;;;;3.33;2.00;;;;;;;;;;12873240;23;20047;-88
2023/06/09 03:52:06;;;;;;;2.78;2.53;;;;;;;;;;12900356;23;20264;-88
2023/06/09 03:57:11;;;;;;;5.28;2.60;;;;;;;;;;12876974;23;20343;-90
2023/06/09 04:02:17;;;;;;;2.75;2.13;;;;;;;;;;12879872;23;20030;-90
2023/06/09 04:07:21;;;;;;;3.90;1.98;;;;;;;;;;12879334;23;20397;-89
2023/06/09 04:12:24;;;;;;;2.47;2.00;;;;;;;;;;12904805;23;20023;-89
2023/06/09 04:17:32;;;;;;;2.80;2.50;;;;;;;;;;12878563;23;20032;-90
2023/06/09 04:22:36;;;;;;;2.42;2.00;;;;;;;;;;12879802;23;20527;-90
2023/06/09 04:27:41;;;;;;;2.55;2.08;;;;;;;;;;12879282;23;20024;-89
2023/06/09 04:32:50;;;;;;;2.70;2.20;;;;;;;;;;12879220;23;20024;-90
2023/06/09 04:37:54;;;;;;;2.78;2.50;;;;;;;;;;12878683;23;20095;-91
2023/06/09 04:42:59;;;;;;;4.75;2.60;;;;;;;;;;12879241;23;20418;-89
2023/06/09 04:48:07;;;;;;;3.08;2.38;;;;;;;;;;12877811;23;20337;-89
2023/06/09 04:53:11;;;;;;;2.20;2.00;;;;;;;;;;12878232;23;20030;-90
2023/06/09 04:58:19;;;;;;;3.20;2.30;;;;;;;;;;12877146;23;20024;-89
2023/06/09 05:03:25;;;;;;;3.40;2.47;;;;;;;;;;12879565;23;20122;-89
2023/06/09 05:08:29;;;;;;;2.78;2.45;;;;;;;;;;12878393;23;20038;-89
2023/06/09 05:13:34;;;;;;;3.38;2.38;;;;;;;;;;12879160;23;20035;-90
2023/06/09 05:18:38;;;;;;;5.43;2.50;;;;;;;;;;12877357;23;20099;-89
2023/06/09 05:23:42;;;;;;;3.30;2.55;;;;;;;;;;12878258;23;20024;-91
2023/06/09 05:28:46;;;;;;;3.38;2.67;;;;;;;;;;12878872;23;20024;-90
2023/06/09 05:33:51;;;;;;;2.30;1.90;;;;;;;;;;12878609;23;20111;-89
2023/06/09 05:38:55;;;;;;;5.38;3.30;;;;;;;;;;12852918;23;20016;-90
2023/06/09 05:43:59;;;;;;;5.10;3.13;;;;;;;;;;12878255;22;20070;-89
2023/06/09 05:49:04;;;;;;;4.07;2.97;;;;;;;;;;12879786;23;20020;-88
2023/06/09 05:54:07;;;;;;;4.68;3.10;;;;;;;;;;12905343;22;20051;-90
2023/06/09 05:59:10;;;;;;;4.10;3.13;;;;;;;;;;12879333;23;20012;-90
2023/06/09 06:04:19;;;;;;;4.22;2.45;;;;;;;;;;12878297;22;20048;-91
2023/06/09 06:09:23;;;;;;;4.45;3.58;;;;;;;;;;12880288;23;20021;-90
2023/06/09 06:14:26;;;;;;;3.42;2.75;;;;;;;;;;12879703;22;20459;-91
2023/06/09 06:19:31;;;;;;;4.05;2.33;;;;;;;;;;12908421;23;20024;-90
2023/06/09 06:24:35;;;;;;;2.85;2.22;;;;;;;;;;12880314;22;20523;-90
2023/06/09 06:29:38;;;;;;;3.88;2.30;;;;;;;;;;12907834;23;20090;-90
2023/06/09 06:34:43;;;;;;;3.25;2.70;;;;;;;;;;12879598;22;20424;-90
2023/06/09 06:39:47;;;;;;;3.08;2.65;;;;;;;;;;12880237;23;20347;-90
2023/06/09 06:44:50;;;;;;;3.22;2.92;;;;;;;;;;12879708;22;20027;-89
2023/06/09 06:49:55;;;;;;;2.53;2.30;;;;;;;;;;12907883;23;20266;-89
2023/06/09 06:54:58;;;;;;;3.45;2.80;;;;;;;;;;12878964;22;20027;-90
2023/06/09 07:00:07;;;;;;;2.15;1.92;;;;;;;;;;12880147;23;20391;-89
2023/06/09 07:05:12;;;;;;;3.58;2.30;;;;;;;;;;12905163;22;20414;-89
2023/06/09 07:10:15;;;;;;;2.22;2.00;;;;;;;;;;12880057;23;20055;-89
2023/06/09 07:15:19;;;;;;;5.50;3.28;;;;;;;;;;12878701;22;20094;-89
2023/06/09 07:20:24;;;;;;;3.63;2.40;;;;;;;;;;12879548;23;20452;-89
2023/06/09 07:25:28;;;;;;;1.80;1.67;;;;;;;;;;12880617;22;20020;-89
2023/06/09 07:30:32;;;;;;;2.03;1.83;;;;;;;;;;12880065;23;20107;-89
2023/06/09 07:35:37;;;;;;;1.73;1.52;;;;;;;;;;12878214;22;20020;-89
2023/06/09 07:40:40;;;;;;;1.20;1.10;;;;;;;;;;12879318;23;20355;-89
2023/06/09 07:45:45;;;;;;;3.15;2.00;;;;;;;;;;12880465;22;20024;-89
2023/06/09 07:50:49;;;;;;;2.10;1.70;;;;;;;;;;12879714;23;20216;-90
2023/06/09 07:55:58;;;;;;;1.90;1.60;;;;;;;;;;12903936;22;20091;-88
2023/06/09 08:01:02;;;;;;;1.92;1.40;;;;;;;;;;12879704;23;20020;-88
2023/06/09 08:06:08;;;;;;;3.25;1.40;;;;;;;;;;12905850;22;20055;-87
2023/06/09 08:11:11;;;;;;;1.48;1.38;;;;;;;;;;12877046;23;20024;-87
2023/06/09 08:16:15;;;;;;;1.98;1.70;;;;;;;;;;12878992;22;20055;-87
2023/06/09 08:21:20;;;;;;;2.03;1.65;;;;;;;;;;12901319;23;20126;-88
2023/06/09 08:26:23;;;;;;;1.70;1.60;;;;;;;;;;12902464;22;20016;-87
2023/06/09 08:31:27;;;;;;;2.03;1.42;;;;;;;;;;12876311;22;20060;-83
2023/06/09 08:36:32;;;;;;;2.50;1.67;;;;;;;;;;12857199;23;20076;-84
2023/06/09 08:41:43;;;;;;;1.65;1.52;;;;;;;;;;12886440;23;20328;-84
2023/06/09 08:46:49;;;;;;;1.33;1.08;;;;;;;;;;12915846;22;20032;-85
2023/06/09 08:51:54;;;;;;;2.03;1.50;;;;;;;;;;12889055;23;20040;-85
2023/06/09 08:56:57;;;;;;;2.13;1.77;;;;;;;;;;12914717;22;20035;-85
2023/06/09 09:02:02;;;;;;;3.40;1.60;;;;;;;;;;12885003;23;20103;-85
2023/06/09 09:07:07;;;;;;;2.22;1.27;;;;;;;;;;12913606;22;20028;-84
2023/06/09 09:12:12;;;;;;;2.10;1.75;;;;;;;;;;12912996;23;20020;-85
2023/06/09 09:17:16;;;;;;;;;;;;;;;;;;12883131;23;20051;-84
2023/06/09 09:22:21;;;;;;;3.47;1.90;;;;;;;;;;12909531;23;19915;-84
2023/06/09 09:27:26;;;;;;;6.70;2.17;;;;;;;;;;12881774;23;20417;-84
2023/06/09 09:32:29;;;;;;;2.40;1.98;;;;;;;;;;12904554;23;20024;-85
2023/06/09 09:37:34;;;;;;;19.55;5.13;;;;;;;;;;12882982;23;20414;-85
2023/06/09 09:42:41;;;;;;;7.73;3.20;;;;;;;;;;12881028;23;20281;-85
2023/06/09 09:47:44;;;;;;;2.70;1.90;;;;;;;;;;12878412;23;20426;-84
2023/06/09 09:52:51;;;;;;;1.80;1.45;;;;;;;;;;12885095;23;20032;-85
2023/06/09 09:57:55;;;;;;;1.65;1.55;;;;;;;;;;12924776;22;20020;-84
2023/06/09 10:03:01;;;;;;;2.05;1.63;;;;;;;;;;12888253;23;20498;-85
2023/06/09 10:08:07;;;;;;;1.63;1.42;;;;;;;;;;12885258;23;20024;-85
2023/06/09 10:13:12;;;;;;;2.10;1.52;;;;;;;;;;12888120;23;20408;-84
2023/06/09 10:18:17;;;;;;;3.13;1.52;;;;;;;;;;12886357;23;20021;-85
2023/06/09 10:23:23;;;;;;;2.13;1.40;;;;;;;;;;12914310;23;20024;-86
2023/06/09 10:28:26;;;;;;;1.67;1.48;;;;;;;;;;12884416;23;20316;-85
2023/06/09 10:33:33;;;;;;;2.33;1.70;;;;;;;;;;12887255;23;20456;-84
2023/06/09 10:38:42;;;;;;;3.05;2.08;;;;;;;;;;12887813;23;20051;-85
2023/06/09 10:44:16;;;;;;;1.42;1.33;;;;;;;;;;12887597;23;20510;-85
2023/06/09 10:49:39;;;;;;;1.60;1.50;;;;;;;;;;12916919;23;20027;-83
2023/06/09 10:55:04;;;;;;;2.08;1.85;;;;;;;;;;12887747;22;20024;-83
2023/06/09 11:00:12;;;;;;;4.10;1.98;;;;;;;;;;12914354;23;20561;-83
2023/06/09 11:05:16;;;;;;;3.83;1.60;;;;;;;;;;12911983;22;20494;-84
2023/06/09 11:10:30;;;;;;;2.22;1.77;;;;;;;;;;12886255;23;20016;-83
2023/06/09 11:15:57;;;;;;;1.92;1.67;;;;;;;;;;12931929;22;20098;-83
2023/06/09 11:21:16;;;;;;;3.20;2.30;;;;;;;;;;12886937;23;20031;-84
2023/06/09 11:26:24;;;;;;;1.73;1.52;;;;;;;;;;12887193;22;20429;-84
2023/06/09 11:31:29;;;;;;;2.03;1.80;;;;;;;;;;12910892;23;20024;-84
2023/06/09 11:36:33;;;;;;;2.20;1.95;;;;;;;;;;12925924;22;20081;-84
2023/06/09 11:41:38;;;;;;;2.28;2.00;;;;;;;;;;12884155;23;20039;-83
2023/06/09 11:46:41;;;;;;;;;;;;;;;;;;12881847;22;20198;-83
2023/06/09 11:52:03;;;;;;;2.28;1.48;;;;;;;;;;12911734;23;19946;-84
2023/06/09 11:57:07;;;;;;;2.25;2.03;;;;;;;;;;12884747;23;20016;-84
2023/06/09 12:02:12;;;;;;;2.20;1.90;;;;;;;;;;12911146;23;20035;-84
2023/06/09 12:07:17;;;;;;;2.13;1.60;;;;;;;;;;12880587;23;20024;-84
2023/06/09 12:12:22;;;;;;;3.13;1.50;;;;;;;;;;12881672;23;20024;-84
2023/06/09 12:17:25;;;;;;;;;;;;;;;;;;12882286;23;20043;-84
2023/06/09 12:22:38;;;;;;;1.40;1.30;;;;;;;;;;12920763;23;19966;-84
2023/06/09 12:27:43;;;;;;;3.20;1.83;;;;;;;;;;12881794;23;20307;-85
2023/06/09 12:32:46;;;;;;;;;;;;;;;;;;12918474;23;20028;-83
2023/06/09 12:37:49;;;;;;;2.30;2.00;;;;;;;;;;12908188;22;20343;-83
2023/06/09 12:42:54;;;;;;;1.88;1.60;;;;;;;;;;12882394;23;20028;-83
2023/06/09 12:47:57;;;;;;;;;;;;;;;;;;12914252;22;20028;-84
2023/06/09 12:53:01;;;;;;;3.03;1.70;;;;;;;;;;12879982;23;19989;-84
2023/06/09 12:58:07;;;;;;;2.05;1.80;;;;;;;;;;12901596;22;20051;-85
2023/06/09 13:03:12;;;;;;;3.13;1.73;;;;;;;;;;12878730;23;20020;-84
2023/06/09 13:08:15;;;;;;;1.98;1.67;;;;;;;;;;12881886;23;20113;-84
2023/06/09 13:13:20;;;;;;;1.90;1.75;;;;;;;;;;12879283;23;20268;-84
2023/06/09 13:18:23;;;;;;;;;;;;;;;;;;12879758;23;20024;-84
2023/06/09 13:23:26;;;;;;;2.10;1.88;;;;;;;;;;12913429;23;19942;-85
2023/06/09 13:28:31;;;;;;;2.00;1.80;;;;;;;;;;12923305;22;20108;-84
2023/06/09 13:33:34;;;;;;;;;;;;;;;;;;12878909;23;20019;-84
2023/06/09 13:38:39;;;;;;;1.90;1.73;;;;;;;;;;12920523;22;19926;-84
2023/06/09 13:43:44;;;;;;;2.40;2.10;;;;;;;;;;12881353;23;20024;-85
2023/06/09 13:48:47;;;;;;;1.65;1.50;;;;;;;;;;12920763;22;20024;-83
2023/06/09 13:53:51;;;;;;;2.50;2.30;;;;;;;;;;12887145;23;20032;-83
2023/06/09 13:58:55;;;;;;;2.50;1.55;;;;;;;;;;12892110;23;20047;-83
2023/06/09 14:03:59;;;;;;;2.25;1.70;;;;;;;;;;12917137;22;20016;-83
2023/06/09 14:09:02;;;;;;;2.25;1.52;;;;;;;;;;12918743;23;20050;-85
2023/06/09 14:14:07;;;;;;;1.88;1.70;;;;;;;;;;12916515;22;20065;-83
2023/06/09 14:19:11;;;;;;;2.20;2.00;;;;;;;;;;12918454;23;20035;-82
2023/06/09 14:24:14;;;;;;;2.40;1.97;;;;;;;;;;12889781;22;20307;-83
2023/06/09 14:29:22;;;;;;;1.70;1.60;;;;;;;;;;12926406;23;20455;-83
2023/06/09 14:34:25;;;;;;;2.75;1.88;;;;;;;;;;12844635;22;20051;-87
2023/06/09 14:39:28;;;;;;;1.60;1.30;;;;;;;;;;12905462;23;20020;-87
2023/06/09 14:44:33;;;;;;;2.22;1.92;;;;;;;;;;12870827;22;20033;-87
2023/06/09 14:49:37;;;;;;;2.88;1.60;;;;;;;;;;12875314;23;20055;-86
2023/06/09 14:54:40;;;;;;;1.48;1.38;;;;;;;;;;12872404;22;20366;-88
2023/06/09 14:59:47;;;;;;;2.90;2.22;;;;;;;;;;12875204;23;20103;-87
2023/06/09 15:04:50;;;;;;;1.92;1.70;;;;;;;;;;12873950;22;20058;-87
2023/06/09 15:09:58;;;;;;;2.97;1.50;;;;;;;;;;12897940;23;20028;-87
2023/06/09 15:15:03;;;;;;;3.13;1.80;;;;;;;;;;12899991;22;20020;-87
2023/06/09 15:20:09;;;;;;;;;;;;;;;;;;12872410;23;20371;-87
2023/06/09 15:25:14;;;;;;;2.08;1.60;;;;;;;;;;12872520;22;19919;-87
2023/06/09 15:30:19;;;;;;;2.33;1.63;;;;;;;;;;12870738;23;20024;-87
2023/06/09 15:35:23;;;;;;;2.40;1.85;;;;;;;;;;12875337;22;20020;-87
2023/06/09 15:40:26;;;;;;;2.75;1.67;;;;;;;;;;12871026;23;20074;-87
2023/06/09 15:45:38;;;;;;;2.33;1.70;;;;;;;;;;12874620;22;20024;-87
2023/06/09 15:50:44;;;;;;;2.25;2.05;;;;;;;;;;12874366;23;20340;-87
2023/06/09 15:55:47;;;;;;;2.20;2.00;;;;;;;;;;12878995;22;20020;-87
2023/06/09 16:00:52;;;;;;;2.35;1.75;;;;;;;;;;12875705;23;20024;-87
2023/06/09 16:05:56;;;;;;;2.22;2.00;;;;;;;;;;12879461;22;20019;-87
2023/06/09 16:11:00;;;;;;;2.47;1.83;;;;;;;;;;12875209;23;20112;-87
2023/06/09 16:16:06;;;;;;;1.90;1.75;;;;;;;;;;12878503;22;20058;-87
2023/06/09 16:21:10;;;;;;;3.42;2.40;;;;;;;;;;12875991;23;20024;-87
2023/06/09 16:26:14;;;;;;;2.75;1.77;;;;;;;;;;12878488;22;20051;-88
2023/06/09 16:31:20;;;;;;;2.88;1.98;;;;;;;;;;12876621;23;20020;-88
2023/06/09 16:36:23;;;;;;;2.35;2.08;;;;;;;;;;12878904;22;20028;-87
2023/06/09 16:41:27;;;;;;;4.40;1.88;;;;;;;;;;12875797;23;20023;-87
2023/06/09 16:46:32;;;;;;;3.38;1.95;;;;;;;;;;12879083;22;20020;-87
2023/06/09 16:51:36;;;;;;;3.28;2.25;;;;;;;;;;12900188;23;20086;-88
2023/06/09 16:56:39;;;;;;;2.25;1.80;;;;;;;;;;12878685;22;20020;-88
2023/06/09 17:01:44;;;;;;;2.92;1.67;;;;;;;;;;12875169;23;20028;-88
2023/06/09 17:06:48;;;;;;;5.53;2.03;;;;;;;;;;12907887;22;20510;-88
2023/06/09 17:11:54;;;;;;;1.98;1.75;;;;;;;;;;12902046;23;20456;-88
2023/06/09 17:16:59;;;;;;;2.30;1.90;;;;;;;;;;12875133;23;20024;-88
2023/06/09 17:22:02;;;;;;;3.35;1.70;;;;;;;;;;12873574;23;20502;-88
2023/06/09 17:27:07;;;;;;;3.15;2.00;;;;;;;;;;12878081;23;20179;-88
2023/06/09 17:32:12;;;;;;;2.10;1.90;;;;;;;;;;12873058;23;20036;-87
2023/06/09 17:37:16;;;;;;;1.55;1.45;;;;;;;;;;12902953;22;20028;-88
2023/06/09 17:42:20;;;;;;;3.35;1.92;;;;;;;;;;12917425;23;20024;-88
2023/06/09 17:47:26;;;;;;;2.20;1.65;;;;;;;;;;12878942;23;20040;-88
2023/06/09 17:52:30;;;;;;;3.17;2.08;;;;;;;;;;12874289;23;20032;-88
2023/06/09 17:57:33;;;;;;;2.97;1.90;;;;;;;;;;12876910;23;20524;-88
2023/06/09 18:02:38;;;;;;;2.13;1.92;;;;;;;;;;12875268;23;20024;-88
2023/06/09 18:07:44;;;;;;;2.22;2.00;;;;;;;;;;12877751;23;20027;-88
2023/06/09 18:12:48;;;;;;;3.25;1.70;;;;;;;;;;12874843;23;20500;-88
2023/06/09 18:17:53;;;;;;;2.33;1.95;;;;;;;;;;12904051;22;20035;-88
2023/06/09 18:23:01;;;;;;;1.85;1.67;;;;;;;;;;12900555;23;20103;-88
2023/06/09 18:28:06;;;;;;;2.67;2.17;;;;;;;;;;12878027;23;20028;-88
2023/06/09 18:33:11;;;;;;;2.57;2.03;;;;;;;;;;12873073;23;20027;-87
2023/06/09 18:38:33;;;;;;;3.17;1.77;;;;;;;;;;12876867;23;20733;-88
2023/06/09 18:43:39;;;;;;;2.05;1.58;;;;;;;;;;12877797;23;20020;-88
2023/06/09 18:48:43;;;;;;;2.75;1.75;;;;;;;;;;12876183;23;20023;-87
2023/06/09 18:53:54;;;;;;;3.17;1.90;;;;;;;;;;12875565;22;20020;-87
2023/06/09 18:58:58;;;;;;;2.65;2.00;;;;;;;;;;12875320;23;20482;-87
2023/06/09 19:04:03;;;;;;;5.70;1.85;;;;;;;;;;12902789;22;20355;-87
2023/06/09 19:09:06;;;;;;;2.95;2.08;;;;;;;;;;12876233;23;20051;-87
2023/06/09 19:14:11;;;;;;;2.10;1.73;;;;;;;;;;12902527;22;20779;-87
2023/06/09 19:19:18;;;;;;;2.92;2.15;;;;;;;;;;12875515;23;20040;-87
2023/06/09 19:24:21;;;;;;;2.83;1.90;;;;;;;;;;12866981;22;20020;-87
2023/06/09 19:29:28;;;;;;;2.63;2.17;;;;;;;;;;12904745;23;20495;-88
2023/06/09 19:34:33;;;;;;;3.28;2.05;;;;;;;;;;12871459;22;20655;-87
2023/06/09 19:39:37;;;;;;;2.90;2.60;;;;;;;;;;12878487;23;20050;-87
2023/06/09 19:44:40;;;;;;;2.30;2.10;;;;;;;;;;12905680;22;20020;-91
2023/06/09 19:49:46;;;;;;;2.30;2.10;;;;;;;;;;12908556;23;20028;-90
2023/06/09 19:54:49;;;;;;;2.55;2.35;;;;;;;;;;12908951;22;20024;-90
2023/06/09 19:59:53;;;;;;;2.88;2.10;;;;;;;;;;12906068;23;20020;-89
2023/06/09 20:04:58;;;;;;;2.40;2.20;;;;;;;;;;12880736;22;20524;-90
2023/06/09 20:10:02;;;;;;;3.07;2.10;;;;;;;;;;12880193;23;20031;-92
2023/06/09 20:15:07;;;;;;;2.30;2.10;;;;;;;;;;12880633;22;20521;-90
2023/06/09 20:20:13;;;;;;;2.40;2.20;;;;;;;;;;12906227;23;20032;-91
2023/06/09 20:25:16;;;;;;;3.28;2.50;;;;;;;;;;12880459;22;20051;-89
2023/06/09 20:30:22;;;;;;;3.60;2.22;;;;;;;;;;12880818;23;20020;-90
2023/06/09 20:35:28;;;;;;;2.53;2.33;;;;;;;;;;12904750;22;20099;-90
2023/06/09 20:40:37;;;;;;;5.00;2.80;;;;;;;;;;12910953;23;20359;-92
2023/06/09 20:45:42;;;;;;;2.95;2.10;;;;;;;;;;12878815;22;20020;-92
2023/06/09 20:50:49;;;;;;;2.80;2.47;;;;;;;;;;12910303;23;20389;-90
2023/06/09 20:55:52;;;;;;;3.08;2.78;;;;;;;;;;12883738;22;20352;-90
2023/06/09 21:00:56;;;;;;;3.75;2.72;;;;;;;;;;12882791;23;20020;-90
2023/06/09 21:06:01;;;;;;;3.20;2.50;;;;;;;;;;12882979;22;20026;-91
2023/06/09 21:11:05;;;;;;;3.10;2.73;;;;;;;;;;12883113;23;20044;-90
2023/06/09 21:16:08;;;;;;;2.90;2.60;;;;;;;;;;12909903;22;20024;-91
2023/06/09 21:21:13;;;;;;;3.20;2.83;;;;;;;;;;12883840;23;20090;-91
2023/06/09 21:26:17;;;;;;;3.47;2.87;;;;;;;;;;12905644;22;20106;-90
2023/06/09 21:31:20;;;;;;;3.33;2.80;;;;;;;;;;12877783;23;20364;-89
2023/06/09 21:36:25;;;;;;;5.00;3.50;;;;;;;;;;12874886;22;20031;-90
2023/06/09 21:41:29;;;;;;;3.55;2.92;;;;;;;;;;12905019;23;20024;-88
2023/06/09 21:46:32;;;;;;;3.88;3.45;;;;;;;;;;12874038;22;20024;-90
2023/06/09 21:51:38;;;;;;;3.72;3.38;;;;;;;;;;12878158;23;20310;-87
2023/06/09 21:56:41;;;;;;;6.03;3.80;;;;;;;;;;12899674;22;20074;-90
2023/06/09 22:01:45;;;;;;;3.70;3.30;;;;;;;;;;12877460;23;20107;-88
2023/06/09 22:06:53;;;;;;;5.20;3.38;;;;;;;;;;12873572;22;20024;-88
2023/06/09 22:11:57;;;;;;;4.43;3.22;;;;;;;;;;12904742;23;20368;-89
2023/06/09 22:17:01;;;;;;;4.55;3.50;;;;;;;;;;12899717;22;20024;-89
2023/06/09 22:22:07;;;;;;;2.85;2.45;;;;;;;;;;12878236;23;20024;-89
2023/06/09 22:27:11;;;;;;;2.95;2.60;;;;;;;;;;12872574;23;20248;-88
2023/06/09 22:32:15;;;;;;;2.58;2.05;;;;;;;;;;12877339;23;20506;-89
2023/06/09 22:37:20;;;;;;;2.53;2.20;;;;;;;;;;12900243;22;20028;-88
2023/06/09 22:42:24;;;;;;;8.68;2.15;;;;;;;;;;12878328;23;20027;-88
2023/06/09 22:47:27;;;;;;;3.80;2.25;;;;;;;;;;12872777;23;20028;-89
2023/06/09 22:52:33;;;;;;;2.70;2.25;;;;;;;;;;12881585;23;20028;-89
2023/06/09 22:57:37;;;;;;;2.47;2.28;;;;;;;;;;12903115;22;20595;-86
2023/06/09 23:02:41;;;;;;;2.50;2.30;;;;;;;;;;12913418;23;20412;-85
2023/06/09 23:07:55;;;;;;;3.22;2.50;;;;;;;;;;12902072;22;20024;-86
2023/06/09 23:13:04;;;;;;;3.17;2.67;;;;;;;;;;12902270;23;20043;-86
2023/06/09 23:18:08;;;;;;;3.40;2.95;;;;;;;;;;12875131;23;20028;-86
2023/06/09 23:23:14;;;;;;;3.67;2.90;;;;;;;;;;12876245;23;20028;-87
2023/06/09 23:28:17;;;;;;;;;;;;;;;;;;12876716;23;20024;-87
2023/06/09 23:33:24;;;;;;;4.68;3.03;;;;;;;;;;12875565;23;20331;-86
2023/06/09 23:38:29;;;;;;;3.83;3.22;;;;;;;;;;12875022;23;20024;-86
2023/06/09 23:43:33;;;;;;;4.43;3.80;;;;;;;;;;12903282;23;20024;-86
2023/06/09 23:48:36;;;;;;;4.88;3.72;;;;;;;;;;12875016;23;20078;-86
2023/06/09 23:53:41;;;;;;;4.93;3.72;;;;;;;;;;12901486;23;20059;-87
2023/06/09 23:58:44;;;;;;;4.88;3.00;;;;;;;;;;12875866;23;20028;-87
